createdAt,value
2023-03-21T00:00:59.358Z,97606.58
2023-03-21T00:04:58.518Z,97602.39
2023-03-21T00:08:57.156Z,97604.45
2023-03-21T00:12:52.169Z,97603.08
2023-03-21T00:16:48.725Z,97601.77
2023-03-21T00:20:51.271Z,97595.81
2023-03-21T00:24:48.845Z,97593.85
2023-03-21T00:28:45.455Z,97593.88
2023-03-21T00:32:49.294Z,97590.89
2023-03-21T00:36:50.384Z,97584.19
2023-03-21T00:40:32.968Z,97582.08
2023-03-21T00:44:38.763Z,97590.73
2023-03-21T00:48:28.668Z,97595.17
2023-03-21T00:52:40.610Z,97598.52
2023-03-21T00:56:44.826Z,97618.83
2023-03-21T01:00:41.291Z,97653.19
2023-03-21T01:04:31.926Z,97654.79
2023-03-21T01:08:31.261Z,97652.58
2023-03-21T01:12:23.922Z,97644.48
2023-03-21T01:16:09.250Z,97644.05
2023-03-21T01:20:04.693Z,97632.66
2023-03-21T01:23:52.629Z,97625.85
2023-03-21T01:27:40.973Z,97637.17
2023-03-21T01:31:47.839Z,97642.52
2023-03-21T01:35:48.029Z,97642.41
2023-03-21T01:39:40.430Z,97640.52
2023-03-21T01:43:42.953Z,97641.78
2023-03-21T01:47:46.615Z,97635.05
2023-03-21T01:51:42.617Z,97623.60
2023-03-21T01:55:39.635Z,97621.22
2023-03-21T01:59:43.458Z,97625.34
2023-03-21T02:03:47.266Z,97625.98
2023-03-21T02:07:48.358Z,97628.33
2023-03-21T02:11:38.113Z,97629.20
2023-03-21T02:15:34.608Z,97624.04
2023-03-21T02:19:32.814Z,97614.59
2023-03-21T02:23:42.311Z,97611.20
2023-03-21T02:28:05.882Z,97603.61
2023-03-21T02:32:34.880Z,97593.23
2023-03-21T02:37:18.263Z,97590.62
2023-03-21T02:41:40.068Z,97586.66
2023-03-21T02:46:24.276Z,97587.27
2023-03-21T02:50:22.423Z,97591.86
2023-03-21T02:54:35.100Z,97589.28
2023-03-21T02:58:42.816Z,97584.91
2023-03-21T03:02:47.562Z,97590.63
2023-03-21T03:06:53.237Z,97591.70
2023-03-21T03:11:10.994Z,97588.30
2023-03-21T03:15:16.214Z,97581.47
2023-03-21T03:19:34.481Z,97586.78
2023-03-21T03:23:45.963Z,97582.63
2023-03-21T03:27:41.841Z,97583.98
2023-03-21T03:31:45.470Z,97583.08
2023-03-21T03:35:26.268Z,97582.07
2023-03-21T03:39:15.940Z,97581.53
2023-03-21T03:43:14.905Z,97579.58
2023-03-21T03:47:04.261Z,97581.86
2023-03-21T03:51:03.618Z,97583.29
2023-03-21T03:55:07.332Z,97581.64
2023-03-21T03:58:58.180Z,97584.77
2023-03-21T04:02:46.009Z,97582.73
2023-03-21T04:06:29.323Z,97582.52
2023-03-21T04:10:29.402Z,97590.61
2023-03-21T04:14:44.093Z,97589.23
2023-03-21T04:18:39.547Z,97589.63
2023-03-21T04:22:34.686Z,97589.63
2023-03-21T04:26:38.530Z,97590.06
2023-03-21T04:30:09.962Z,97582.77
2023-03-21T04:34:00.122Z,97578.27
2023-03-21T04:37:49.056Z,97580.81
2023-03-21T04:41:44.291Z,97579.56
2023-03-21T04:45:48.084Z,97572.50
2023-03-21T04:49:45.168Z,97569.11
2023-03-21T04:53:39.969Z,97574.66
2023-03-21T04:57:39.869Z,97569.14
2023-03-21T05:01:34.079Z,97573.76
2023-03-21T05:05:11.967Z,97579.77
2023-03-21T05:09:04.218Z,97576.75
2023-03-21T05:13:00.457Z,97582.95
2023-03-21T05:17:03.385Z,97588.16
2023-03-21T05:20:53.230Z,97584.31
2023-03-21T05:24:42.883Z,97587.04
2023-03-21T05:28:27.341Z,97586.33
2023-03-21T05:32:31.387Z,97586.70
2023-03-21T05:36:55.115Z,97586.09
2023-03-21T05:40:43.460Z,97581.92
2023-03-21T05:44:37.300Z,97589.27
2023-03-21T05:48:34.601Z,97589.28
2023-03-21T05:52:38.174Z,97591.51
2023-03-21T05:57:02.073Z,97595.37
2023-03-21T06:01:06.336Z,97594.80
2023-03-21T06:05:26.033Z,97588.31
2023-03-21T06:09:38.259Z,97588.79
2023-03-21T06:13:32.814Z,97584.68
2023-03-21T06:17:36.477Z,97585.60
2023-03-21T06:21:30.182Z,97583.87
2023-03-21T06:25:04.312Z,97587.00
2023-03-21T06:28:23.892Z,97587.90
2023-03-21T06:32:05.841Z,97591.66
2023-03-21T06:35:35.742Z,97598.52
2023-03-21T06:39:00.321Z,97598.96
2023-03-21T06:42:32.691Z,97598.88
2023-03-21T06:46:06.265Z,97592.09
2023-03-21T06:49:46.588Z,97592.36
2023-03-21T06:53:20.694Z,97591.55
2023-03-21T06:56:32.545Z,97593.70
2023-03-21T06:59:41.160Z,97595.23
2023-03-21T07:02:48.771Z,97596.36
2023-03-21T07:05:53.751Z,97602.21
2023-03-21T07:08:59.809Z,97603.52
2023-03-21T07:12:10.183Z,97603.34
2023-03-21T07:15:13.115Z,97605.48
2023-03-21T07:18:23.730Z,97605.33
2023-03-21T07:21:26.657Z,97611.95
2023-03-21T07:24:29.562Z,97609.73
2023-03-21T07:27:51.099Z,97613.98
2023-03-21T07:31:05.451Z,97616.05
2023-03-21T07:34:17.845Z,97614.29
2023-03-21T07:37:23.991Z,97614.16
2023-03-21T07:40:50.667Z,97616.91
2023-03-21T07:43:59.352Z,97624.86
2023-03-21T07:47:07.010Z,97624.67
2023-03-21T07:51:05.811Z,97621.57
2023-03-21T07:55:03.116Z,97626.02
2023-03-21T07:58:46.178Z,97627.65
2023-03-21T08:02:45.545Z,97627.80
2023-03-21T08:06:16.881Z,97628.34
2023-03-21T08:09:48.217Z,97626.83
2023-03-21T08:13:37.962Z,97636.08
2023-03-21T08:17:10.791Z,97639.29
2023-03-21T08:21:14.785Z,97643.96
2023-03-21T08:24:59.575Z,97642.89
2023-03-21T08:29:03.331Z,97645.36
2023-03-21T08:33:00.504Z,97644.63
2023-03-21T08:36:51.054Z,97647.86
2023-03-21T08:40:02.581Z,97647.82
2023-03-21T08:44:06.250Z,97652.18
2023-03-21T08:48:10.238Z,97656.76
2023-03-21T08:52:11.749Z,97659.61
2023-03-21T08:56:10.339Z,97662.66
2023-03-21T09:00:14.110Z,97665.04
2023-03-21T09:04:04.423Z,97670.20
2023-03-21T09:08:07.685Z,97676.23
2023-03-21T09:11:53.879Z,97680.31
2023-03-21T09:15:37.168Z,97681.59
2023-03-21T09:19:38.738Z,97686.12
2023-03-21T09:23:56.576Z,97686.27
2023-03-21T09:27:37.076Z,97683.41
2023-03-21T09:30:54.811Z,97678.22
2023-03-21T09:34:09.011Z,97679.94
2023-03-21T09:37:22.056Z,97682.71
2023-03-21T09:40:51.779Z,97681.55
2023-03-21T09:44:32.052Z,97686.06
2023-03-21T09:47:49.795Z,97687.36
2023-03-21T09:50:55.929Z,97686.64
2023-03-21T09:54:25.536Z,97683.15
2023-03-21T09:57:43.252Z,97684.86
2023-03-21T10:00:56.716Z,97683.25
2023-03-21T10:04:14.244Z,97685.15
2023-03-21T10:10:54.678Z,97685.70
2023-03-21T10:14:07.907Z,97684.59
2023-03-21T10:17:43.165Z,97683.05
2023-03-21T10:20:50.729Z,97678.84
2023-03-21T10:24:05.366Z,97678.92
2023-03-21T10:27:13.436Z,97682.02
2023-03-21T10:30:32.416Z,97683.73
2023-03-21T10:33:47.734Z,97680.05
2023-03-21T10:37:04.639Z,97677.46
2023-03-21T10:40:15.685Z,97674.20
2023-03-21T10:43:37.553Z,97673.05
2023-03-21T10:46:55.425Z,97672.95
2023-03-21T10:50:08.927Z,97674.25
2023-03-21T10:53:25.412Z,97679.24
2023-03-21T10:56:31.856Z,97683.67
2023-03-21T10:59:39.943Z,97682.35
2023-03-21T11:02:46.826Z,97678.11
2023-03-21T11:05:56.372Z,97684.26
2023-03-21T11:09:06.114Z,97686.75
2023-03-21T11:12:28.413Z,97687.40
2023-03-21T11:16:05.001Z,97681.35
2023-03-21T11:19:30.887Z,97682.67
2023-03-21T11:22:43.596Z,97681.13
2023-03-21T11:25:51.115Z,97681.45
2023-03-21T11:28:55.376Z,97683.04
2023-03-21T11:32:22.727Z,97679.84
2023-03-21T11:35:32.551Z,97676.61
2023-03-21T11:38:40.254Z,97672.09
2023-03-21T11:41:47.415Z,97671.13
2023-03-21T11:44:59.980Z,97667.48
2023-03-21T11:48:13.005Z,97665.23
2023-03-21T11:51:21.867Z,97660.89
2023-03-21T11:54:30.932Z,97656.81
2023-03-21T11:57:39.958Z,97656.17
2023-03-21T12:00:54.884Z,97648.15
2023-03-21T12:04:44.937Z,97651.33
2023-03-21T12:08:33.224Z,97652.83
2023-03-21T12:11:39.019Z,97645.40
2023-03-21T12:14:57.646Z,97645.40
2023-03-21T12:18:12.485Z,97639.90
2023-03-21T12:22:09.418Z,97634.80
2023-03-21T12:25:20.357Z,97634.11
2023-03-21T12:28:33.515Z,97630.22
2023-03-21T12:32:15.551Z,97628.68
2023-03-21T12:35:46.109Z,97625.53
2023-03-21T12:39:04.375Z,97623.14
2023-03-21T12:42:36.771Z,97617.79
2023-03-21T12:45:47.283Z,97619.30
2023-03-21T12:49:00.514Z,97619.48
2023-03-21T12:52:32.894Z,97623.48
2023-03-21T12:55:39.591Z,97619.64
2023-03-21T12:58:59.088Z,97618.23
2023-03-21T13:02:31.273Z,97616.42
2023-03-21T13:05:39.101Z,97616.02
2023-03-21T13:09:01.922Z,97613.59
2023-03-21T13:12:28.841Z,97615.05
2023-03-21T13:15:54.791Z,97613.30
2023-03-21T13:19:13.379Z,97610.16
2023-03-21T13:22:31.445Z,97609.74
2023-03-21T13:25:42.537Z,97603.73
2023-03-21T13:28:52.263Z,97601.48
2023-03-21T13:32:12.507Z,97598.70
2023-03-21T13:35:29.255Z,97598.73
2023-03-21T13:38:40.060Z,97601.71
2023-03-21T13:41:51.806Z,97602.69
2023-03-21T13:44:56.765Z,97602.71
2023-03-21T13:48:34.077Z,97600.08
2023-03-21T13:51:40.103Z,97593.83
2023-03-21T13:54:52.644Z,97593.60
2023-03-21T13:57:58.834Z,97592.56
2023-03-21T14:01:16.211Z,97591.60
2023-03-21T14:04:41.984Z,97591.86
2023-03-21T14:08:36.528Z,97588.77
2023-03-21T14:11:46.709Z,97584.75
2023-03-21T14:14:54.191Z,97585.64
2023-03-21T14:18:16.312Z,97587.60
2023-03-21T14:21:34.215Z,97585.20
2023-03-21T14:24:41.356Z,97581.43
2023-03-21T14:27:57.142Z,97583.56
2023-03-21T14:31:07.274Z,97580.05
2023-03-21T14:34:17.869Z,97581.40
2023-03-21T14:37:31.850Z,97577.86
2023-03-21T14:40:38.445Z,97580.63
2023-03-21T14:43:47.436Z,97573.16
2023-03-21T14:46:56.556Z,97575.05
2023-03-21T14:50:13.611Z,97572.14
2023-03-21T14:53:23.429Z,97572.77
2023-03-21T14:56:39.678Z,97566.08
2023-03-21T15:00:01.904Z,97568.30
2023-03-21T15:03:18.790Z,97568.18
2023-03-21T15:06:30.713Z,97567.83
2023-03-21T15:09:38.419Z,97569.95
2023-03-21T15:12:56.269Z,97566.41
2023-03-21T15:16:00.465Z,97560.70
2023-03-21T15:19:17.234Z,97561.91
2023-03-21T15:22:57.911Z,97556.93
2023-03-21T15:26:21.206Z,97553.94
2023-03-21T15:29:41.986Z,97552.54
2023-03-21T15:33:05.030Z,97548.00
2023-03-21T15:36:10.123Z,97549.79
2023-03-21T15:39:17.464Z,97548.69
2023-03-21T15:43:13.243Z,97549.75
2023-03-21T15:46:49.027Z,97549.73
2023-03-21T15:50:19.984Z,97547.09
2023-03-21T15:53:53.317Z,97546.17
2023-03-21T15:57:59.890Z,97548.27
2023-03-21T16:01:33.096Z,97549.58
2023-03-21T16:05:27.640Z,97550.45
2023-03-21T16:09:04.751Z,97552.08
2023-03-21T16:12:44.331Z,97551.66
2023-03-21T16:16:10.861Z,97554.19
2023-03-21T16:19:52.633Z,97554.70
2023-03-21T16:23:34.837Z,97556.70
2023-03-21T16:27:22.576Z,97558.15
2023-03-21T16:31:05.196Z,97556.00
2023-03-21T16:35:01.790Z,97554.55
2023-03-21T16:38:58.910Z,97554.41
2023-03-21T16:42:47.628Z,97556.10
2023-03-21T16:46:47.224Z,97558.10
2023-03-21T16:50:35.750Z,97559.73
2023-03-21T16:54:24.984Z,97566.39
2023-03-21T16:58:21.654Z,97571.94
2023-03-21T17:02:01.473Z,97575.27
2023-03-21T17:05:55.085Z,97575.81
2023-03-21T17:09:15.618Z,97579.77
2023-03-21T17:12:54.437Z,97585.09
2023-03-21T17:16:33.236Z,97587.20
2023-03-21T17:20:05.920Z,97588.67
2023-03-21T17:23:45.825Z,97588.88
2023-03-21T17:27:27.360Z,97593.23
2023-03-21T17:31:30.963Z,97590.85
2023-03-21T17:35:34.740Z,97591.71
2023-03-21T17:39:36.504Z,97588.24
2023-03-21T17:43:01.387Z,97590.23
2023-03-21T17:47:03.961Z,97591.29
2023-03-21T17:51:03.438Z,97588.60
2023-03-21T17:54:25.124Z,97588.73
2023-03-21T17:58:05.515Z,97588.16
2023-03-21T18:01:52.866Z,97585.63
2023-03-21T18:05:43.407Z,97579.45
2023-03-21T18:09:21.731Z,97577.94
2023-03-21T18:12:48.837Z,97575.31
2023-03-21T18:16:37.925Z,97578.54
2023-03-21T18:20:51.707Z,97579.83
2023-03-21T18:24:27.324Z,97581.73
2023-03-21T18:28:31.380Z,97585.80
2023-03-21T18:32:11.989Z,97584.94
2023-03-21T18:35:46.764Z,97587.25
2023-03-21T18:39:50.669Z,97588.17
2023-03-21T18:44:05.868Z,97595.09
2023-03-21T18:47:55.503Z,97597.48
2023-03-21T18:51:44.365Z,97595.67
2023-03-21T18:55:45.951Z,97596.80
2023-03-21T18:59:36.466Z,97592.27
2023-03-21T19:03:35.885Z,97595.10
2023-03-21T19:07:21.995Z,97594.96
2023-03-21T19:10:53.041Z,97599.01
2023-03-21T19:14:20.371Z,97595.40
2023-03-21T19:25:18.418Z,97599.39
2023-03-21T19:29:22.200Z,97600.64
2023-03-21T19:33:16.981Z,97596.77
2023-03-21T19:36:57.863Z,97597.51
2023-03-21T19:40:31.831Z,97597.27
2023-03-21T19:44:02.958Z,97595.11
2023-03-21T19:48:06.643Z,97595.06
2023-03-21T19:52:00.641Z,97599.11
2023-03-21T19:56:16.494Z,97600.83
2023-03-21T19:59:55.197Z,97598.84
2023-03-21T20:03:41.885Z,97598.11
2023-03-21T20:07:45.674Z,97598.91
2023-03-21T20:11:27.889Z,97600.61
2023-03-21T20:15:26.843Z,97595.61
2023-03-21T20:19:53.066Z,97601.73
2023-03-21T20:23:39.864Z,97601.83
2023-03-21T20:27:08.753Z,97599.88
2023-03-21T20:31:02.647Z,97596.89
2023-03-21T20:35:10.291Z,97596.06
2023-03-21T20:38:58.795Z,97603.02
2023-03-21T20:42:32.764Z,97604.73
2023-03-21T20:46:22.997Z,97601.19
2023-03-21T20:50:12.980Z,97600.72
2023-03-21T20:57:20.044Z,97593.70
2023-03-21T21:01:16.502Z,97590.02
2023-03-21T21:05:35.446Z,97587.60
2023-03-21T21:09:37.902Z,97583.22
2023-03-21T21:13:41.472Z,97581.66
2023-03-21T21:18:02.138Z,97581.31
2023-03-21T21:21:59.268Z,97580.79
2023-03-21T21:25:48.602Z,97580.38
2023-03-21T21:29:31.282Z,97587.65
2023-03-21T21:33:27.079Z,97584.85
2023-03-21T21:37:23.407Z,97587.56
2023-03-21T21:41:29.736Z,97589.14
2023-03-21T21:45:18.348Z,97585.60
2023-03-21T21:49:13.661Z,97592.06
2023-03-21T21:53:04.377Z,97590.14
2023-03-21T21:57:08.137Z,97586.77
2023-03-21T22:00:56.330Z,97590.36
2023-03-21T22:04:49.694Z,97590.92
2023-03-21T22:08:35.221Z,97588.61
2023-03-21T22:12:17.965Z,97588.08
2023-03-21T22:16:14.416Z,97591.17
2023-03-21T22:20:06.514Z,97587.30
2023-03-21T22:23:38.708Z,97585.25
2023-03-21T22:27:29.002Z,97585.89
2023-03-21T22:31:27.253Z,97587.84
2023-03-21T22:35:23.547Z,97587.30
2023-03-21T22:39:27.305Z,97586.29
2023-03-21T22:43:16.879Z,97586.60
2023-03-21T22:47:20.483Z,97588.95
2023-03-21T22:51:24.117Z,97581.00
2023-03-21T22:55:12.293Z,97574.19
2023-03-21T22:59:15.858Z,97560.08
2023-03-21T23:03:10.846Z,97549.88
2023-03-21T23:07:02.153Z,97542.95
2023-03-21T23:11:05.880Z,97538.83
2023-03-21T23:15:08.351Z,97540.81
2023-03-21T23:19:04.963Z,97546.44
2023-03-21T23:23:11.651Z,97541.52
2023-03-21T23:27:08.479Z,97540.77
2023-03-21T23:31:05.060Z,97537.05
2023-03-21T23:34:53.930Z,97536.66
2023-03-21T23:38:41.933Z,97539.42
2023-03-21T23:42:39.631Z,97538.70
2023-03-21T23:46:43.230Z,97538.98
2023-03-21T23:50:39.893Z,97542.44
2023-03-21T23:54:43.734Z,97539.86
2023-03-21T23:58:29.503Z,97533.67
